sensor_id;sensor_type;location;lat;lon;timestamp;P1;durP1;ratioP1;P2;durP2;ratioP2
1925;SDS011;964;42.606;23.588;2023-03-14T00:00:58;5.53;;;4.37;;
1925;SDS011;964;42.606;23.588;2023-03-14T00:03:27;8.20;;;4.20;;
1925;SDS011;964;42.606;23.588;2023-03-14T00:05:54;8.27;;;5.30;;
1925;SDS011;964;42.606;23.588;2023-03-14T00:08:21;7.63;;;4.77;;
1925;SDS011;964;42.606;23.588;2023-03-14T00:10:49;5.87;;;3.70;;
1925;SDS011;964;42.606;23.588;2023-03-14T00:13:16;5.87;;;4.40;;
1925;SDS011;964;42.606;23.588;2023-03-14T00:15:43;7.40;;;4.87;;
1925;SDS011;964;42.606;23.588;2023-03-14T00:18:11;6.37;;;4.20;;
1925;SDS011;964;42.606;23.588;2023-03-14T00:20:37;5.97;;;3.73;;
1925;SDS011;964;42.606;23.588;2023-03-14T00:23:04;6.47;;;5.30;;
1925;SDS011;964;42.606;23.588;2023-03-14T00:25:30;9.00;;;5.47;;
1925;SDS011;964;42.606;23.588;2023-03-14T00:27:57;15.10;;;6.93;;
1925;SDS011;964;42.606;23.588;2023-03-14T00:30:24;4.33;;;2.43;;
1925;SDS011;964;42.606;23.588;2023-03-14T00:32:50;7.47;;;3.77;;
1925;SDS011;964;42.606;23.588;2023-03-14T00:35:19;4.87;;;3.40;;
1925;SDS011;964;42.606;23.588;2023-03-14T00:37:45;4.10;;;2.73;;
1925;SDS011;964;42.606;23.588;2023-03-14T00:40:13;3.97;;;2.43;;
1925;SDS011;964;42.606;23.588;2023-03-14T00:42:40;3.77;;;2.57;;
1925;SDS011;964;42.606;23.588;2023-03-14T00:45:07;3.80;;;2.73;;
1925;SDS011;964;42.606;23.588;2023-03-14T00:47:35;4.60;;;2.80;;
1925;SDS011;964;42.606;23.588;2023-03-14T00:50:04;8.47;;;2.80;;
1925;SDS011;964;42.606;23.588;2023-03-14T00:52:33;3.20;;;2.37;;
1925;SDS011;964;42.606;23.588;2023-03-14T00:55:00;3.30;;;2.00;;
1925;SDS011;964;42.606;23.588;2023-03-14T00:57:26;4.40;;;3.00;;
1925;SDS011;964;42.606;23.588;2023-03-14T00:59:53;5.07;;;3.43;;
1925;SDS011;964;42.606;23.588;2023-03-14T01:02:19;4.83;;;4.30;;
1925;SDS011;964;42.606;23.588;2023-03-14T01:04:47;6.43;;;4.07;;
1925;SDS011;964;42.606;23.588;2023-03-14T01:07:14;3.63;;;3.00;;
1925;SDS011;964;42.606;23.588;2023-03-14T01:09:42;3.33;;;1.97;;
1925;SDS011;964;42.606;23.588;2023-03-14T01:12:09;10.33;;;5.60;;
1925;SDS011;964;42.606;23.588;2023-03-14T01:14:36;5.40;;;3.43;;
1925;SDS011;964;42.606;23.588;2023-03-14T01:17:02;9.70;;;4.73;;
1925;SDS011;964;42.606;23.588;2023-03-14T01:19:29;6.53;;;4.57;;
1925;SDS011;964;42.606;23.588;2023-03-14T01:21:56;15.80;;;6.67;;
1925;SDS011;964;42.606;23.588;2023-03-14T01:24:23;6.50;;;4.40;;
1925;SDS011;964;42.606;23.588;2023-03-14T01:26:51;6.93;;;4.17;;
1925;SDS011;964;42.606;23.588;2023-03-14T01:29:18;5.60;;;4.03;;
1925;SDS011;964;42.606;23.588;2023-03-14T01:31:44;4.00;;;3.53;;
1925;SDS011;964;42.606;23.588;2023-03-14T01:34:11;9.13;;;3.73;;
1925;SDS011;964;42.606;23.588;2023-03-14T01:36:38;8.13;;;4.17;;
1925;SDS011;964;42.606;23.588;2023-03-14T01:39:04;6.10;;;4.33;;
1925;SDS011;964;42.606;23.588;2023-03-14T01:41:33;5.87;;;4.40;;
1925;SDS011;964;42.606;23.588;2023-03-14T01:44:01;4.57;;;3.43;;
1925;SDS011;964;42.606;23.588;2023-03-14T01:46:32;6.20;;;3.90;;
1925;SDS011;964;42.606;23.588;2023-03-14T01:49:03;2.57;;;2.37;;
1925;SDS011;964;42.606;23.588;2023-03-14T01:51:36;8.57;;;4.13;;
1925;SDS011;964;42.606;23.588;2023-03-14T01:54:10;5.00;;;3.57;;
1925;SDS011;964;42.606;23.588;2023-03-14T01:56:40;9.97;;;4.87;;
1925;SDS011;964;42.606;23.588;2023-03-14T01:59:12;6.67;;;3.90;;
1925;SDS011;964;42.606;23.588;2023-03-14T02:01:39;6.80;;;4.70;;
1925;SDS011;964;42.606;23.588;2023-03-14T02:04:10;3.53;;;2.77;;
1925;SDS011;964;42.606;23.588;2023-03-14T02:06:42;8.23;;;4.17;;
1925;SDS011;964;42.606;23.588;2023-03-14T02:09:14;4.40;;;3.90;;
1925;SDS011;964;42.606;23.588;2023-03-14T02:11:42;5.77;;;4.23;;
1925;SDS011;964;42.606;23.588;2023-03-14T02:14:13;7.53;;;3.93;;
1925;SDS011;964;42.606;23.588;2023-03-14T02:16:49;5.83;;;3.43;;
1925;SDS011;964;42.606;23.588;2023-03-14T02:19:17;9.20;;;3.37;;
1925;SDS011;964;42.606;23.588;2023-03-14T02:21:53;10.77;;;5.20;;
1925;SDS011;964;42.606;23.588;2023-03-14T02:24:25;4.17;;;3.60;;
1925;SDS011;964;42.606;23.588;2023-03-14T02:27:07;4.30;;;3.30;;
1925;SDS011;964;42.606;23.588;2023-03-14T02:29:39;7.30;;;4.50;;
1925;SDS011;964;42.606;23.588;2023-03-14T02:32:11;5.47;;;4.80;;
1925;SDS011;964;42.606;23.588;2023-03-14T02:34:39;6.33;;;4.40;;
1925;SDS011;964;42.606;23.588;2023-03-14T02:37:07;8.33;;;4.27;;
1925;SDS011;964;42.606;23.588;2023-03-14T02:39:36;7.20;;;3.63;;
1925;SDS011;964;42.606;23.588;2023-03-14T02:42:05;8.00;;;5.17;;
1925;SDS011;964;42.606;23.588;2023-03-14T02:44:33;6.83;;;4.20;;
1925;SDS011;964;42.606;23.588;2023-03-14T02:47:00;6.83;;;4.77;;
1925;SDS011;964;42.606;23.588;2023-03-14T02:49:27;8.10;;;4.83;;
1925;SDS011;964;42.606;23.588;2023-03-14T02:51:58;5.13;;;3.67;;
1925;SDS011;964;42.606;23.588;2023-03-14T02:54:24;6.80;;;4.00;;
1925;SDS011;964;42.606;23.588;2023-03-14T02:56:51;4.77;;;3.40;;
1925;SDS011;964;42.606;23.588;2023-03-14T02:59:18;5.20;;;4.03;;
1925;SDS011;964;42.606;23.588;2023-03-14T03:01:46;4.10;;;3.67;;
1925;SDS011;964;42.606;23.588;2023-03-14T03:04:12;7.00;;;3.47;;
1925;SDS011;964;42.606;23.588;2023-03-14T03:06:39;6.30;;;3.60;;
1925;SDS011;964;42.606;23.588;2023-03-14T03:09:06;12.63;;;4.00;;
1925;SDS011;964;42.606;23.588;2023-03-14T03:11:32;8.60;;;4.90;;
1925;SDS011;964;42.606;23.588;2023-03-14T03:13:59;6.13;;;4.30;;
1925;SDS011;964;42.606;23.588;2023-03-14T03:16:26;6.33;;;3.93;;
1925;SDS011;964;42.606;23.588;2023-03-14T03:18:54;6.60;;;4.50;;
1925;SDS011;964;42.606;23.588;2023-03-14T03:21:20;10.10;;;5.97;;
1925;SDS011;964;42.606;23.588;2023-03-14T03:23:49;7.80;;;4.40;;
1925;SDS011;964;42.606;23.588;2023-03-14T03:26:16;13.77;;;5.10;;
1925;SDS011;964;42.606;23.588;2023-03-14T03:28:42;7.57;;;4.37;;
1925;SDS011;964;42.606;23.588;2023-03-14T03:31:10;5.60;;;4.10;;
1925;SDS011;964;42.606;23.588;2023-03-14T03:33:37;5.63;;;3.73;;
1925;SDS011;964;42.606;23.588;2023-03-14T03:36:05;10.10;;;5.57;;
1925;SDS011;964;42.606;23.588;2023-03-14T03:38:33;10.00;;;5.60;;
1925;SDS011;964;42.606;23.588;2023-03-14T03:41:01;8.37;;;5.57;;
1925;SDS011;964;42.606;23.588;2023-03-14T03:43:29;8.73;;;4.57;;
1925;SDS011;964;42.606;23.588;2023-03-14T03:45:56;9.40;;;5.17;;
1925;SDS011;964;42.606;23.588;2023-03-14T03:48:22;7.30;;;4.60;;
1925;SDS011;964;42.606;23.588;2023-03-14T03:50:49;8.40;;;5.27;;
1925;SDS011;964;42.606;23.588;2023-03-14T03:53:17;5.60;;;4.50;;
1925;SDS011;964;42.606;23.588;2023-03-14T03:55:44;7.37;;;4.50;;
1925;SDS011;964;42.606;23.588;2023-03-14T03:58:10;6.37;;;4.37;;
1925;SDS011;964;42.606;23.588;2023-03-14T04:00:37;6.53;;;4.60;;
1925;SDS011;964;42.606;23.588;2023-03-14T04:03:04;8.30;;;4.43;;
1925;SDS011;964;42.606;23.588;2023-03-14T04:05:31;6.63;;;4.90;;
1925;SDS011;964;42.606;23.588;2023-03-14T04:07:59;10.60;;;6.00;;
1925;SDS011;964;42.606;23.588;2023-03-14T04:10:27;10.10;;;5.77;;
1925;SDS011;964;42.606;23.588;2023-03-14T04:12:54;7.37;;;5.13;;
1925;SDS011;964;42.606;23.588;2023-03-14T04:15:20;9.30;;;4.77;;
1925;SDS011;964;42.606;23.588;2023-03-14T04:17:47;8.20;;;5.70;;
1925;SDS011;964;42.606;23.588;2023-03-14T04:20:14;15.03;;;5.10;;
1925;SDS011;964;42.606;23.588;2023-03-14T04:22:41;6.73;;;4.73;;
1925;SDS011;964;42.606;23.588;2023-03-14T04:25:07;8.47;;;4.47;;
1925;SDS011;964;42.606;23.588;2023-03-14T04:27:36;12.13;;;7.73;;
1925;SDS011;964;42.606;23.588;2023-03-14T04:30:02;8.30;;;4.53;;
1925;SDS011;964;42.606;23.588;2023-03-14T04:32:30;7.03;;;5.47;;
1925;SDS011;964;42.606;23.588;2023-03-14T04:34:57;6.67;;;4.90;;
1925;SDS011;964;42.606;23.588;2023-03-14T04:37:23;8.10;;;5.47;;
1925;SDS011;964;42.606;23.588;2023-03-14T04:39:50;11.20;;;5.87;;
1925;SDS011;964;42.606;23.588;2023-03-14T04:42:16;9.23;;;6.00;;
1925;SDS011;964;42.606;23.588;2023-03-14T04:44:44;8.13;;;6.70;;
1925;SDS011;964;42.606;23.588;2023-03-14T04:47:11;9.57;;;6.10;;
1925;SDS011;964;42.606;23.588;2023-03-14T04:49:38;10.80;;;5.50;;
1925;SDS011;964;42.606;23.588;2023-03-14T04:52:05;9.70;;;6.13;;
1925;SDS011;964;42.606;23.588;2023-03-14T04:54:32;11.07;;;5.90;;
1925;SDS011;964;42.606;23.588;2023-03-14T04:56:58;9.47;;;5.70;;
1925;SDS011;964;42.606;23.588;2023-03-14T04:59:25;11.60;;;5.77;;
1925;SDS011;964;42.606;23.588;2023-03-14T05:01:53;9.13;;;6.10;;
1925;SDS011;964;42.606;23.588;2023-03-14T05:04:20;10.50;;;6.20;;
1925;SDS011;964;42.606;23.588;2023-03-14T05:06:46;13.73;;;7.00;;
1925;SDS011;964;42.606;23.588;2023-03-14T05:09:13;16.43;;;9.10;;
1925;SDS011;964;42.606;23.588;2023-03-14T05:11:40;14.83;;;6.77;;
1925;SDS011;964;42.606;23.588;2023-03-14T05:14:07;15.70;;;7.23;;
1925;SDS011;964;42.606;23.588;2023-03-14T05:16:34;6.93;;;5.37;;
1925;SDS011;964;42.606;23.588;2023-03-14T05:19:02;9.20;;;5.93;;
1925;SDS011;964;42.606;23.588;2023-03-14T05:21:28;8.00;;;5.40;;
1925;SDS011;964;42.606;23.588;2023-03-14T05:23:55;14.43;;;7.90;;
1925;SDS011;964;42.606;23.588;2023-03-14T05:26:22;28.63;;;10.33;;
1925;SDS011;964;42.606;23.588;2023-03-14T05:28:50;26.17;;;11.13;;
1925;SDS011;964;42.606;23.588;2023-03-14T05:31:17;17.43;;;9.97;;
1925;SDS011;964;42.606;23.588;2023-03-14T05:33:44;17.27;;;8.27;;
1925;SDS011;964;42.606;23.588;2023-03-14T05:36:12;14.97;;;7.73;;
1925;SDS011;964;42.606;23.588;2023-03-14T05:38:38;15.57;;;8.67;;
1925;SDS011;964;42.606;23.588;2023-03-14T05:41:05;16.00;;;6.97;;
1925;SDS011;964;42.606;23.588;2023-03-14T05:43:32;21.80;;;8.03;;
1925;SDS011;964;42.606;23.588;2023-03-14T05:45:59;16.50;;;7.97;;
1925;SDS011;964;42.606;23.588;2023-03-14T05:48:26;11.10;;;6.87;;
1925;SDS011;964;42.606;23.588;2023-03-14T05:50:56;9.73;;;6.50;;
1925;SDS011;964;42.606;23.588;2023-03-14T05:53:25;8.03;;;5.60;;
1925;SDS011;964;42.606;23.588;2023-03-14T05:55:54;10.50;;;6.70;;
1925;SDS011;964;42.606;23.588;2023-03-14T05:58:21;7.80;;;5.73;;
1925;SDS011;964;42.606;23.588;2023-03-14T06:00:48;12.03;;;6.37;;
1925;SDS011;964;42.606;23.588;2023-03-14T06:03:15;8.50;;;5.90;;
1925;SDS011;964;42.606;23.588;2023-03-14T06:05:42;9.40;;;6.50;;
1925;SDS011;964;42.606;23.588;2023-03-14T06:08:09;11.93;;;7.10;;
1925;SDS011;964;42.606;23.588;2023-03-14T06:10:37;11.00;;;6.90;;
1925;SDS011;964;42.606;23.588;2023-03-14T06:13:03;9.03;;;6.50;;
1925;SDS011;964;42.606;23.588;2023-03-14T06:15:31;11.73;;;7.10;;
1925;SDS011;964;42.606;23.588;2023-03-14T06:17:58;10.40;;;6.93;;
1925;SDS011;964;42.606;23.588;2023-03-14T06:20:24;13.73;;;7.63;;
1925;SDS011;964;42.606;23.588;2023-03-14T06:22:51;10.70;;;6.83;;
1925;SDS011;964;42.606;23.588;2023-03-14T06:25:18;11.50;;;7.80;;
1925;SDS011;964;42.606;23.588;2023-03-14T06:27:46;14.07;;;8.30;;
1925;SDS011;964;42.606;23.588;2023-03-14T06:30:13;13.20;;;8.70;;
1925;SDS011;964;42.606;23.588;2023-03-14T06:32:40;11.83;;;7.50;;
1925;SDS011;964;42.606;23.588;2023-03-14T06:35:07;12.80;;;7.40;;
1925;SDS011;964;42.606;23.588;2023-03-14T06:37:34;14.60;;;7.67;;
1925;SDS011;964;42.606;23.588;2023-03-14T06:40:00;6.57;;;5.90;;
1925;SDS011;964;42.606;23.588;2023-03-14T06:42:27;7.07;;;3.73;;
1925;SDS011;964;42.606;23.588;2023-03-14T06:44:56;6.30;;;4.97;;
1925;SDS011;964;42.606;23.588;2023-03-14T06:47:22;22.80;;;14.10;;
1925;SDS011;964;42.606;23.588;2023-03-14T06:49:49;8.93;;;6.10;;
1925;SDS011;964;42.606;23.588;2023-03-14T06:52:16;4.30;;;3.37;;
1925;SDS011;964;42.606;23.588;2023-03-14T06:54:42;5.07;;;2.97;;
1925;SDS011;964;42.606;23.588;2023-03-14T06:57:09;3.93;;;3.10;;
1925;SDS011;964;42.606;23.588;2023-03-14T06:59:36;8.83;;;4.90;;
1925;SDS011;964;42.606;23.588;2023-03-14T07:02:03;10.90;;;5.73;;
1925;SDS011;964;42.606;23.588;2023-03-14T07:04:30;6.40;;;4.40;;
1925;SDS011;964;42.606;23.588;2023-03-14T07:06:57;5.20;;;4.60;;
1925;SDS011;964;42.606;23.588;2023-03-14T07:09:23;8.10;;;4.50;;
1925;SDS011;964;42.606;23.588;2023-03-14T07:11:50;8.23;;;5.47;;
1925;SDS011;964;42.606;23.588;2023-03-14T07:14:17;6.30;;;5.70;;
1925;SDS011;964;42.606;23.588;2023-03-14T07:16:43;5.60;;;4.60;;
1925;SDS011;964;42.606;23.588;2023-03-14T07:19:11;7.90;;;5.10;;
1925;SDS011;964;42.606;23.588;2023-03-14T07:21:38;13.37;;;5.70;;
1925;SDS011;964;42.606;23.588;2023-03-14T07:24:05;7.93;;;4.50;;
1925;SDS011;964;42.606;23.588;2023-03-14T07:26:31;6.80;;;4.57;;
1925;SDS011;964;42.606;23.588;2023-03-14T07:28:58;7.57;;;5.40;;
1925;SDS011;964;42.606;23.588;2023-03-14T07:31:25;6.93;;;4.87;;
1925;SDS011;964;42.606;23.588;2023-03-14T07:33:52;5.60;;;4.33;;
1925;SDS011;964;42.606;23.588;2023-03-14T07:36:20;5.00;;;4.07;;
1925;SDS011;964;42.606;23.588;2023-03-14T07:38:47;6.43;;;4.27;;
1925;SDS011;964;42.606;23.588;2023-03-14T07:41:14;6.83;;;4.17;;
1925;SDS011;964;42.606;23.588;2023-03-14T07:43:40;4.80;;;4.30;;
1925;SDS011;964;42.606;23.588;2023-03-14T07:46:07;6.30;;;4.47;;
1925;SDS011;964;42.606;23.588;2023-03-14T07:48:34;5.33;;;3.87;;
1925;SDS011;964;42.606;23.588;2023-03-14T07:51:01;5.47;;;3.60;;
1925;SDS011;964;42.606;23.588;2023-03-14T07:53:29;4.83;;;3.47;;
1925;SDS011;964;42.606;23.588;2023-03-14T07:55:56;6.17;;;4.30;;
1925;SDS011;964;42.606;23.588;2023-03-14T07:58:23;4.07;;;3.60;;
1925;SDS011;964;42.606;23.588;2023-03-14T08:00:49;6.13;;;3.43;;
1925;SDS011;964;42.606;23.588;2023-03-14T08:03:16;3.60;;;3.30;;
1925;SDS011;964;42.606;23.588;2023-03-14T08:05:43;4.80;;;3.30;;
1925;SDS011;964;42.606;23.588;2023-03-14T08:08:13;3.67;;;3.33;;
1925;SDS011;964;42.606;23.588;2023-03-14T08:10:41;3.27;;;2.97;;
1925;SDS011;964;42.606;23.588;2023-03-14T08:13:08;4.40;;;3.20;;
1925;SDS011;964;42.606;23.588;2023-03-14T08:15:36;3.30;;;3.00;;
1925;SDS011;964;42.606;23.588;2023-03-14T08:18:03;4.53;;;3.60;;
1925;SDS011;964;42.606;23.588;2023-03-14T08:20:30;4.90;;;3.77;;
1925;SDS011;964;42.606;23.588;2023-03-14T08:22:57;3.57;;;3.10;;
1925;SDS011;964;42.606;23.588;2023-03-14T08:25:24;3.87;;;3.47;;
1925;SDS011;964;42.606;23.588;2023-03-14T08:27:53;3.77;;;3.27;;
1925;SDS011;964;42.606;23.588;2023-03-14T08:30:21;3.37;;;3.07;;
1925;SDS011;964;42.606;23.588;2023-03-14T08:32:48;3.50;;;3.20;;
1925;SDS011;964;42.606;23.588;2023-03-14T08:35:15;3.80;;;3.10;;
1925;SDS011;964;42.606;23.588;2023-03-14T08:37:42;3.73;;;3.33;;
1925;SDS011;964;42.606;23.588;2023-03-14T08:40:09;6.33;;;3.77;;
1925;SDS011;964;42.606;23.588;2023-03-14T08:42:37;7.60;;;3.40;;
1925;SDS011;964;42.606;23.588;2023-03-14T08:45:07;3.63;;;3.27;;
1925;SDS011;964;42.606;23.588;2023-03-14T08:47:34;4.03;;;3.63;;
1925;SDS011;964;42.606;23.588;2023-03-14T08:50:01;4.50;;;3.47;;
1925;SDS011;964;42.606;23.588;2023-03-14T08:52:29;4.20;;;3.77;;
1925;SDS011;964;42.606;23.588;2023-03-14T08:54:56;7.40;;;4.50;;
1925;SDS011;964;42.606;23.588;2023-03-14T08:57:23;5.73;;;3.70;;
1925;SDS011;964;42.606;23.588;2023-03-14T08:59:52;6.47;;;3.80;;
1925;SDS011;964;42.606;23.588;2023-03-14T09:02:21;3.63;;;3.00;;
1925;SDS011;964;42.606;23.588;2023-03-14T09:04:48;4.20;;;3.70;;
1925;SDS011;964;42.606;23.588;2023-03-14T09:07:16;3.90;;;3.50;;
1925;SDS011;964;42.606;23.588;2023-03-14T09:09:43;3.67;;;3.17;;
1925;SDS011;964;42.606;23.588;2023-03-14T09:12:10;3.73;;;3.40;;
1925;SDS011;964;42.606;23.588;2023-03-14T09:14:37;3.80;;;3.47;;
1925;SDS011;964;42.606;23.588;2023-03-14T09:17:04;4.40;;;3.50;;
1925;SDS011;964;42.606;23.588;2023-03-14T09:19:32;3.57;;;3.27;;
1925;SDS011;964;42.606;23.588;2023-03-14T09:21:59;3.90;;;3.60;;
1925;SDS011;964;42.606;23.588;2023-03-14T09:24:25;5.47;;;3.87;;
1925;SDS011;964;42.606;23.588;2023-03-14T09:26:52;3.47;;;3.13;;
1925;SDS011;964;42.606;23.588;2023-03-14T09:29:20;6.10;;;3.93;;
1925;SDS011;964;42.606;23.588;2023-03-14T09:31:47;4.37;;;3.30;;
1925;SDS011;964;42.606;23.588;2023-03-14T09:34:14;3.57;;;3.23;;
1925;SDS011;964;42.606;23.588;2023-03-14T09:36:42;5.00;;;3.97;;
1925;SDS011;964;42.606;23.588;2023-03-14T09:39:09;3.83;;;3.03;;
1925;SDS011;964;42.606;23.588;2023-03-14T09:41:37;2.93;;;2.63;;
1925;SDS011;964;42.606;23.588;2023-03-14T09:44:08;3.40;;;2.60;;
1925;SDS011;964;42.606;23.588;2023-03-14T09:46:38;3.60;;;3.30;;
1925;SDS011;964;42.606;23.588;2023-03-14T09:49:11;5.10;;;3.60;;
1925;SDS011;964;42.606;23.588;2023-03-14T09:51:45;3.60;;;2.80;;
1925;SDS011;964;42.606;23.588;2023-03-14T09:54:17;4.47;;;3.67;;
1925;SDS011;964;42.606;23.588;2023-03-14T09:57:03;3.30;;;3.00;;
1925;SDS011;964;42.606;23.588;2023-03-14T09:59:32;4.43;;;3.00;;
1925;SDS011;964;42.606;23.588;2023-03-14T10:02:01;2.80;;;2.60;;
1925;SDS011;964;42.606;23.588;2023-03-14T10:04:39;2.97;;;2.73;;
1925;SDS011;964;42.606;23.588;2023-03-14T10:07:11;5.50;;;3.67;;
1925;SDS011;964;42.606;23.588;2023-03-14T10:09:42;4.40;;;3.23;;
1925;SDS011;964;42.606;23.588;2023-03-14T10:12:09;4.83;;;3.70;;
1925;SDS011;964;42.606;23.588;2023-03-14T10:14:37;7.30;;;3.10;;
1925;SDS011;964;42.606;23.588;2023-03-14T10:17:11;3.57;;;3.00;;
1925;SDS011;964;42.606;23.588;2023-03-14T10:19:50;3.37;;;2.77;;
1925;SDS011;964;42.606;23.588;2023-03-14T10:22:19;3.00;;;2.70;;
1925;SDS011;964;42.606;23.588;2023-03-14T10:24:49;5.37;;;2.30;;
1925;SDS011;964;42.606;23.588;2023-03-14T10:27:19;2.27;;;2.07;;
1925;SDS011;964;42.606;23.588;2023-03-14T10:29:51;2.70;;;2.50;;
1925;SDS011;964;42.606;23.588;2023-03-14T10:32:20;2.80;;;2.10;;
1925;SDS011;964;42.606;23.588;2023-03-14T10:35:04;4.17;;;3.03;;
1925;SDS011;964;42.606;23.588;2023-03-14T10:37:36;3.50;;;3.03;;
1925;SDS011;964;42.606;23.588;2023-03-14T10:40:16;3.13;;;2.60;;
1925;SDS011;964;42.606;23.588;2023-03-14T10:42:45;5.10;;;2.50;;
1925;SDS011;964;42.606;23.588;2023-03-14T10:45:22;3.03;;;2.60;;
1925;SDS011;964;42.606;23.588;2023-03-14T10:48:20;2.67;;;2.47;;
1925;SDS011;964;42.606;23.588;2023-03-14T10:50:50;3.20;;;2.90;;
1925;SDS011;964;42.606;23.588;2023-03-14T10:53:23;3.00;;;2.40;;
1925;SDS011;964;42.606;23.588;2023-03-14T10:55:50;3.27;;;2.80;;
1925;SDS011;964;42.606;23.588;2023-03-14T10:58:18;2.63;;;2.40;;
1925;SDS011;964;42.606;23.588;2023-03-14T11:00:46;2.63;;;2.00;;
1925;SDS011;964;42.606;23.588;2023-03-14T11:03:18;7.00;;;2.67;;
1925;SDS011;964;42.606;23.588;2023-03-14T11:05:48;5.77;;;2.50;;
1925;SDS011;964;42.606;23.588;2023-03-14T11:08:19;2.70;;;2.10;;
1925;SDS011;964;42.606;23.588;2023-03-14T11:10:52;2.60;;;2.40;;
1925;SDS011;964;42.606;23.588;2023-03-14T11:13:24;2.47;;;2.27;;
1925;SDS011;964;42.606;23.588;2023-03-14T11:15:57;2.20;;;2.00;;
1925;SDS011;964;42.606;23.588;2023-03-14T11:18:36;4.00;;;2.40;;
1925;SDS011;964;42.606;23.588;2023-03-14T11:21:25;3.97;;;2.23;;
1925;SDS011;964;42.606;23.588;2023-03-14T11:24:00;2.93;;;2.63;;
1925;SDS011;964;42.606;23.588;2023-03-14T11:26:42;3.30;;;2.70;;
1925;SDS011;964;42.606;23.588;2023-03-14T11:29:20;2.93;;;2.63;;
1925;SDS011;964;42.606;23.588;2023-03-14T11:31:51;5.50;;;3.40;;
1925;SDS011;964;42.606;23.588;2023-03-14T11:34:25;3.93;;;2.53;;
1925;SDS011;964;42.606;23.588;2023-03-14T11:36:56;3.47;;;2.80;;
1925;SDS011;964;42.606;23.588;2023-03-14T11:39:29;2.67;;;2.40;;
1925;SDS011;964;42.606;23.588;2023-03-14T11:42:07;3.53;;;2.30;;
1925;SDS011;964;42.606;23.588;2023-03-14T11:44:39;2.30;;;2.10;;
1925;SDS011;964;42.606;23.588;2023-03-14T11:47:10;2.93;;;2.20;;
1925;SDS011;964;42.606;23.588;2023-03-14T11:49:42;2.40;;;1.87;;
1925;SDS011;964;42.606;23.588;2023-03-14T11:52:16;2.47;;;1.57;;
1925;SDS011;964;42.606;23.588;2023-03-14T11:54:47;2.27;;;1.80;;
1925;SDS011;964;42.606;23.588;2023-03-14T11:57:20;4.23;;;2.50;;
1925;SDS011;964;42.606;23.588;2023-03-14T11:59:50;2.87;;;2.57;;
1925;SDS011;964;42.606;23.588;2023-03-14T12:02:22;4.33;;;2.20;;
1925;SDS011;964;42.606;23.588;2023-03-14T12:04:55;2.33;;;2.13;;
1925;SDS011;964;42.606;23.588;2023-03-14T12:07:50;3.80;;;2.37;;
1925;SDS011;964;42.606;23.588;2023-03-14T12:13:56;2.87;;;2.03;;
1925;SDS011;964;42.606;23.588;2023-03-14T12:16:34;3.77;;;2.67;;
1925;SDS011;964;42.606;23.588;2023-03-14T12:19:13;3.57;;;2.60;;
1925;SDS011;964;42.606;23.588;2023-03-14T12:21:57;6.70;;;3.40;;
1925;SDS011;964;42.606;23.588;2023-03-14T12:24:27;4.53;;;2.80;;
1925;SDS011;964;42.606;23.588;2023-03-14T12:26:57;2.20;;;1.90;;
1925;SDS011;964;42.606;23.588;2023-03-14T12:29:27;10.47;;;3.87;;
1925;SDS011;964;42.606;23.588;2023-03-14T12:32:08;3.80;;;2.77;;
1925;SDS011;964;42.606;23.588;2023-03-14T12:34:47;1.93;;;1.73;;
1925;SDS011;964;42.606;23.588;2023-03-14T12:37:17;4.40;;;2.43;;
1925;SDS011;964;42.606;23.588;2023-03-14T12:39:58;5.90;;;2.83;;
1925;SDS011;964;42.606;23.588;2023-03-14T12:42:38;1.77;;;1.67;;
1925;SDS011;964;42.606;23.588;2023-03-14T12:45:21;3.33;;;1.80;;
1925;SDS011;964;42.606;23.588;2023-03-14T12:47:50;16.10;;;5.50;;
1925;SDS011;964;42.606;23.588;2023-03-14T12:55:58;3.63;;;2.63;;
1925;SDS011;964;42.606;23.588;2023-03-14T12:58:31;14.43;;;3.23;;
1925;SDS011;964;42.606;23.588;2023-03-14T13:01:05;7.20;;;3.97;;
1925;SDS011;964;42.606;23.588;2023-03-14T13:03:42;6.57;;;3.13;;
1925;SDS011;964;42.606;23.588;2023-03-14T13:06:12;10.53;;;4.77;;
1925;SDS011;964;42.606;23.588;2023-03-14T13:08:39;6.17;;;3.70;;
1925;SDS011;964;42.606;23.588;2023-03-14T13:11:08;3.07;;;2.37;;
1925;SDS011;964;42.606;23.588;2023-03-14T13:13:41;6.20;;;3.87;;
1925;SDS011;964;42.606;23.588;2023-03-14T13:16:15;8.43;;;4.17;;
1925;SDS011;964;42.606;23.588;2023-03-14T13:18:43;11.83;;;6.90;;
1925;SDS011;964;42.606;23.588;2023-03-14T13:21:12;3.60;;;2.57;;
1925;SDS011;964;42.606;23.588;2023-03-14T13:23:53;7.90;;;4.30;;
1925;SDS011;964;42.606;23.588;2023-03-14T13:26:21;6.27;;;2.70;;
1925;SDS011;964;42.606;23.588;2023-03-14T13:28:50;12.53;;;7.03;;
1925;SDS011;964;42.606;23.588;2023-03-14T13:31:21;3.67;;;2.73;;
1925;SDS011;964;42.606;23.588;2023-03-14T13:33:58;9.77;;;5.00;;
1925;SDS011;964;42.606;23.588;2023-03-14T13:36:26;28.07;;;12.20;;
1925;SDS011;964;42.606;23.588;2023-03-14T13:38:56;8.00;;;5.17;;
1925;SDS011;964;42.606;23.588;2023-03-14T13:41:24;6.03;;;3.87;;
1925;SDS011;964;42.606;23.588;2023-03-14T13:43:52;6.00;;;3.10;;
1925;SDS011;964;42.606;23.588;2023-03-14T13:46:30;4.67;;;3.10;;
1925;SDS011;964;42.606;23.588;2023-03-14T13:49:03;4.47;;;3.27;;
1925;SDS011;964;42.606;23.588;2023-03-14T13:51:31;2.93;;;2.43;;
1925;SDS011;964;42.606;23.588;2023-03-14T13:53:59;2.50;;;2.30;;
1925;SDS011;964;42.606;23.588;2023-03-14T13:56:28;6.73;;;3.37;;
1925;SDS011;964;42.606;23.588;2023-03-14T13:58:57;2.03;;;1.90;;
1925;SDS011;964;42.606;23.588;2023-03-14T14:01:25;6.77;;;3.63;;
1925;SDS011;964;42.606;23.588;2023-03-14T14:03:56;7.83;;;3.50;;
1925;SDS011;964;42.606;23.588;2023-03-14T14:06:28;7.90;;;1.80;;
1925;SDS011;964;42.606;23.588;2023-03-14T14:08:57;5.33;;;3.20;;
1925;SDS011;964;42.606;23.588;2023-03-14T14:11:31;3.07;;;2.60;;
1925;SDS011;964;42.606;23.588;2023-03-14T14:14:04;5.57;;;3.53;;
1925;SDS011;964;42.606;23.588;2023-03-14T14:16:35;2.17;;;1.80;;
1925;SDS011;964;42.606;23.588;2023-03-14T14:19:03;2.40;;;1.63;;
1925;SDS011;964;42.606;23.588;2023-03-14T14:21:30;3.43;;;2.20;;
1925;SDS011;964;42.606;23.588;2023-03-14T14:23:58;4.40;;;3.40;;
1925;SDS011;964;42.606;23.588;2023-03-14T14:26:25;2.60;;;2.17;;
1925;SDS011;964;42.606;23.588;2023-03-14T14:29:00;5.30;;;3.47;;
1925;SDS011;964;42.606;23.588;2023-03-14T14:31:29;5.50;;;3.47;;
1925;SDS011;964;42.606;23.588;2023-03-14T14:33:56;4.77;;;2.77;;
1925;SDS011;964;42.606;23.588;2023-03-14T14:36:26;4.33;;;2.97;;
1925;SDS011;964;42.606;23.588;2023-03-14T14:38:59;2.63;;;2.43;;
1925;SDS011;964;42.606;23.588;2023-03-14T14:41:28;3.63;;;1.90;;
1925;SDS011;964;42.606;23.588;2023-03-14T14:43:56;4.93;;;2.70;;
1925;SDS011;964;42.606;23.588;2023-03-14T14:46:26;2.97;;;2.20;;
1925;SDS011;964;42.606;23.588;2023-03-14T14:48:56;4.70;;;3.10;;
1925;SDS011;964;42.606;23.588;2023-03-14T14:51:25;2.23;;;2.03;;
1925;SDS011;964;42.606;23.588;2023-03-14T14:54:09;7.23;;;4.60;;
1925;SDS011;964;42.606;23.588;2023-03-14T14:56:37;6.43;;;4.80;;
1925;SDS011;964;42.606;23.588;2023-03-14T14:59:05;5.10;;;3.40;;
1925;SDS011;964;42.606;23.588;2023-03-14T15:01:43;6.40;;;3.37;;
1925;SDS011;964;42.606;23.588;2023-03-14T15:04:12;9.23;;;6.03;;
1925;SDS011;964;42.606;23.588;2023-03-14T15:06:43;4.80;;;4.17;;
1925;SDS011;964;42.606;23.588;2023-03-14T15:09:13;9.23;;;3.90;;
1925;SDS011;964;42.606;23.588;2023-03-14T15:11:41;8.17;;;5.70;;
1925;SDS011;964;42.606;23.588;2023-03-14T15:14:08;8.20;;;5.53;;
1925;SDS011;964;42.606;23.588;2023-03-14T15:16:34;10.90;;;5.40;;
1925;SDS011;964;42.606;23.588;2023-03-14T15:19:02;11.10;;;7.13;;
1925;SDS011;964;42.606;23.588;2023-03-14T15:21:35;5.70;;;4.00;;
1925;SDS011;964;42.606;23.588;2023-03-14T15:24:09;9.23;;;5.63;;
1925;SDS011;964;42.606;23.588;2023-03-14T15:26:44;3.50;;;3.20;;
1925;SDS011;964;42.606;23.588;2023-03-14T15:29:11;5.47;;;4.93;;
1925;SDS011;964;42.606;23.588;2023-03-14T15:31:38;7.77;;;3.77;;
1925;SDS011;964;42.606;23.588;2023-03-14T15:34:05;4.07;;;3.10;;